sensor_id;sensor_type;location;lat;lon;timestamp;pressure;altitude;pressure_sealevel;temperature;humidity
42003;BME280;27693;50.506;30.832;2023-04-19T00:00:21;99690.22;;;8.68;63.72
42003;BME280;27693;50.506;30.832;2023-04-19T00:01:24;99697.34;;;8.63;64.00
42003;BME280;27693;50.506;30.832;2023-04-19T00:02:27;99704.45;;;8.58;64.06
42003;BME280;27693;50.506;30.832;2023-04-19T00:03:31;99697.67;;;8.54;64.33
42003;BME280;27693;50.506;30.832;2023-04-19T00:04:34;99703.98;;;8.46;63.51
42003;BME280;27693;50.506;30.832;2023-04-19T00:05:38;99689.23;;;8.49;64.78
42003;BME280;27693;50.506;30.832;2023-04-19T00:06:43;99691.83;;;8.49;64.70
42003;BME280;27693;50.506;30.832;2023-04-19T00:07:46;99696.15;;;8.48;65.07
42003;BME280;27693;50.506;30.832;2023-04-19T00:08:48;99690.93;;;8.50;65.52
42003;BME280;27693;50.506;30.832;2023-04-19T00:09:50;99686.64;;;8.49;65.05
42003;BME280;27693;50.506;30.832;2023-04-19T00:10:52;99689.30;;;8.45;64.83
42003;BME280;27693;50.506;30.832;2023-04-19T00:11:55;99692.79;;;8.44;64.77
42003;BME280;27693;50.506;30.832;2023-04-19T00:12:57;99687.54;;;8.47;65.28
42003;BME280;27693;50.506;30.832;2023-04-19T00:13:59;99694.28;;;8.52;65.94
42003;BME280;27693;50.506;30.832;2023-04-19T00:15:01;99693.52;;;8.50;65.04
42003;BME280;27693;50.506;30.832;2023-04-19T00:16:05;99696.05;;;8.51;65.14
42003;BME280;27693;50.506;30.832;2023-04-19T00:17:08;99690.03;;;8.51;64.93
42003;BME280;27693;50.506;30.832;2023-04-19T00:18:12;99697.91;;;8.47;65.15
42003;BME280;27693;50.506;30.832;2023-04-19T00:19:14;99687.54;;;8.47;65.64
42003;BME280;27693;50.506;30.832;2023-04-19T00:20:17;99693.83;;;8.40;65.26
42003;BME280;27693;50.506;30.832;2023-04-19T00:21:19;99688.53;;;8.43;65.84
42003;BME280;27693;50.506;30.832;2023-04-19T00:22:21;99688.57;;;8.42;65.82
42003;BME280;27693;50.506;30.832;2023-04-19T00:23:23;99685.15;;;8.41;65.84
42003;BME280;27693;50.506;30.832;2023-04-19T00:24:27;99686.77;;;8.44;66.47
42003;BME280;27693;50.506;30.832;2023-04-19T00:25:29;99685.84;;;8.46;67.68
42003;BME280;27693;50.506;30.832;2023-04-19T00:26:33;99691.03;;;8.46;67.26
42003;BME280;27693;50.506;30.832;2023-04-19T00:27:35;99680.76;;;8.43;66.38
42003;BME280;27693;50.506;30.832;2023-04-19T00:28:38;99681.72;;;8.41;66.16
42003;BME280;27693;50.506;30.832;2023-04-19T00:29:40;99689.66;;;8.36;65.75
42003;BME280;27693;50.506;30.832;2023-04-19T00:30:42;99681.19;;;8.31;65.87
42003;BME280;27693;50.506;30.832;2023-04-19T00:31:45;99684.58;;;8.33;67.20
42003;BME280;27693;50.506;30.832;2023-04-19T00:32:47;99677.83;;;8.29;66.01
42003;BME280;27693;50.506;30.832;2023-04-19T00:33:51;99680.42;;;8.29;66.40
42003;BME280;27693;50.506;30.832;2023-04-19T00:34:53;99677.03;;;8.27;66.19
42003;BME280;27693;50.506;30.832;2023-04-19T00:35:57;99678.06;;;8.23;66.26
42003;BME280;27693;50.506;30.832;2023-04-19T00:36:59;99679.72;;;8.24;67.32
42003;BME280;27693;50.506;30.832;2023-04-19T00:38:02;99674.77;;;8.18;66.00
42003;BME280;27693;50.506;30.832;2023-04-19T00:39:04;99680.08;;;8.14;66.40
42003;BME280;27693;50.506;30.832;2023-04-19T00:40:08;99672.25;;;8.16;66.99
42003;BME280;27693;50.506;30.832;2023-04-19T00:41:11;99673.14;;;8.15;67.48
42003;BME280;27693;50.506;30.832;2023-04-19T00:42:14;99667.13;;;8.14;67.66
42003;BME280;27693;50.506;30.832;2023-04-19T00:43:17;99669.66;;;8.16;67.86
42003;BME280;27693;50.506;30.832;2023-04-19T00:44:20;99669.05;;;8.09;66.54
42003;BME280;27693;50.506;30.832;2023-04-19T00:45:23;99670.77;;;8.09;67.32
42003;BME280;27693;50.506;30.832;2023-04-19T00:46:26;99668.13;;;8.10;67.37
42003;BME280;27693;50.506;30.832;2023-04-19T00:47:29;99668.13;;;8.10;67.44
42003;BME280;27693;50.506;30.832;2023-04-19T00:48:33;99668.02;;;8.13;68.54
42003;BME280;27693;50.506;30.832;2023-04-19T00:49:37;99680.08;;;8.14;67.58
42003;BME280;27693;50.506;30.832;2023-04-19T00:50:41;99671.52;;;8.12;67.78
42003;BME280;27693;50.506;30.832;2023-04-19T00:51:45;99668.13;;;8.10;67.63
42003;BME280;27693;50.506;30.832;2023-04-19T00:52:48;99662.84;;;8.13;68.19
42003;BME280;27693;50.506;30.832;2023-04-19T00:53:51;99674.90;;;8.14;67.80
42003;BME280;27693;50.506;30.832;2023-04-19T00:54:54;99669.81;;;8.11;67.71
42003;BME280;27693;50.506;30.832;2023-04-19T00:56:01;99671.52;;;8.12;68.29
42003;BME280;27693;50.506;30.832;2023-04-19T00:57:05;99664.53;;;8.14;68.88
42003;BME280;27693;50.506;30.832;2023-04-19T00:58:08;99659.35;;;8.14;68.53
42003;BME280;27693;50.506;30.832;2023-04-19T00:59:14;99655.00;;;8.15;69.08
42003;BME280;27693;50.506;30.832;2023-04-19T01:00:17;99663.64;;;8.15;68.49
42003;BME280;27693;50.506;30.832;2023-04-19T01:01:21;99655.96;;;8.12;67.16
42003;BME280;27693;50.506;30.832;2023-04-19T01:02:24;99660.31;;;8.12;67.65
42003;BME280;27693;50.506;30.832;2023-04-19T01:03:27;99652.57;;;8.10;67.85
42003;BME280;27693;50.506;30.832;2023-04-19T01:04:30;99650.78;;;8.12;68.52
42003;BME280;27693;50.506;30.832;2023-04-19T01:05:33;99653.30;;;8.14;69.24
42003;BME280;27693;50.506;30.832;2023-04-19T01:06:36;99646.46;;;8.13;69.09
42003;BME280;27693;50.506;30.832;2023-04-19T01:07:39;99651.80;;;8.08;67.57
42003;BME280;27693;50.506;30.832;2023-04-19T01:08:42;99649.31;;;8.05;68.40
42003;BME280;27693;50.506;30.832;2023-04-19T01:09:45;99644.20;;;8.04;68.45
42003;BME280;27693;50.506;30.832;2023-04-19T01:10:48;99642.44;;;8.04;68.96
42003;BME280;27693;50.506;30.832;2023-04-19T01:11:51;99648.35;;;8.08;70.29
42003;BME280;27693;50.506;30.832;2023-04-19T01:12:53;99639.98;;;8.01;68.24
42003;BME280;27693;50.506;30.832;2023-04-19T01:13:56;99641.03;;;7.95;68.04
42003;BME280;27693;50.506;30.832;2023-04-19T01:14:59;99646.50;;;7.88;67.86
42003;BME280;27693;50.506;30.832;2023-04-19T01:16:01;99645.64;;;7.87;68.29
42003;BME280;27693;50.506;30.832;2023-04-19T01:17:03;99642.31;;;7.83;68.16
42003;BME280;27693;50.506;30.832;2023-04-19T01:18:06;99644.16;;;7.80;68.00
42003;BME280;27693;50.506;30.832;2023-04-19T01:19:09;99646.02;;;7.76;67.71
42003;BME280;27693;50.506;30.832;2023-04-19T01:20:11;99643.43;;;7.76;67.74
42003;BME280;27693;50.506;30.832;2023-04-19T01:21:14;99648.52;;;7.79;68.39
42003;BME280;27693;50.506;30.832;2023-04-19T01:22:22;99637.13;;;7.83;69.26
42003;BME280;27693;50.506;30.832;2023-04-19T01:23:24;99641.42;;;7.84;68.80
42003;BME280;27693;50.506;30.832;2023-04-19T01:24:27;99647.34;;;7.88;69.82
42003;BME280;27693;50.506;30.832;2023-04-19T01:25:29;99644.91;;;7.83;68.19
42003;BME280;27693;50.506;30.832;2023-04-19T01:26:34;99636.23;;;7.84;68.70
42003;BME280;27693;50.506;30.832;2023-04-19T01:27:38;99644.23;;;7.78;67.77
42003;BME280;27693;50.506;30.832;2023-04-19T01:28:41;99645.92;;;7.79;68.32
42003;BME280;27693;50.506;30.832;2023-04-19T01:29:44;99644.16;;;7.80;68.29
42003;BME280;27693;50.506;30.832;2023-04-19T01:30:46;99645.03;;;7.80;68.31
42003;BME280;27693;50.506;30.832;2023-04-19T01:31:51;99647.62;;;7.80;69.25
42003;BME280;27693;50.506;30.832;2023-04-19T01:32:55;99645.86;;;7.81;69.20
42003;BME280;27693;50.506;30.832;2023-04-19T01:33:57;99647.68;;;7.79;68.97
42003;BME280;27693;50.506;30.832;2023-04-19T01:35:00;99642.44;;;7.80;69.45
42003;BME280;27693;50.506;30.832;2023-04-19T01:36:05;99633.87;;;7.78;69.35
42003;BME280;27693;50.506;30.832;2023-04-19T01:37:08;99639.17;;;7.75;69.47
42003;BME280;27693;50.506;30.832;2023-04-19T01:38:11;99635.72;;;7.75;69.40
42003;BME280;27693;50.506;30.832;2023-04-19T01:39:15;99634.77;;;7.77;70.50
42003;BME280;27693;50.506;30.832;2023-04-19T01:40:18;99636.46;;;7.78;70.22
42003;BME280;27693;50.506;30.832;2023-04-19T01:41:21;99633.20;;;7.73;69.15
42003;BME280;27693;50.506;30.832;2023-04-19T01:42:25;99638.31;;;7.75;69.76
42003;BME280;27693;50.506;30.832;2023-04-19T01:43:28;99634.89;;;7.74;69.54
42003;BME280;27693;50.506;30.832;2023-04-19T01:44:30;99632.33;;;7.73;69.07
42003;BME280;27693;50.506;30.832;2023-04-19T01:45:34;99640.16;;;7.71;68.90
42003;BME280;27693;50.506;30.832;2023-04-19T01:46:39;99632.33;;;7.73;69.16
42003;BME280;27693;50.506;30.832;2023-04-19T01:47:44;99633.27;;;7.72;69.21
42003;BME280;27693;50.506;30.832;2023-04-19T01:48:46;99631.50;;;7.72;69.55
42003;BME280;27693;50.506;30.832;2023-04-19T01:49:48;99635.94;;;7.68;69.12
42003;BME280;27693;50.506;30.832;2023-04-19T01:50:51;99628.39;;;7.62;69.10
42003;BME280;27693;50.506;30.832;2023-04-19T01:51:54;99636.16;;;7.62;69.50
42003;BME280;27693;50.506;30.832;2023-04-19T01:52:57;99630.92;;;7.64;70.34
42003;BME280;27693;50.506;30.832;2023-04-19T01:54:00;99633.52;;;7.64;70.09
42003;BME280;27693;50.506;30.832;2023-04-19T01:55:04;99624.17;;;7.60;70.27
42003;BME280;27693;50.506;30.832;2023-04-19T01:56:07;99631.05;;;7.61;70.62
42003;BME280;27693;50.506;30.832;2023-04-19T01:57:12;99620.72;;;7.59;69.89
42003;BME280;27693;50.506;30.832;2023-04-19T01:58:14;99623.31;;;7.59;70.18
42003;BME280;27693;50.506;30.832;2023-04-19T01:59:17;99626.64;;;7.63;70.90
42003;BME280;27693;50.506;30.832;2023-04-19T02:00:20;99625.06;;;7.59;69.48
42003;BME280;27693;50.506;30.832;2023-04-19T02:01:23;99621.59;;;7.60;69.69
42003;BME280;27693;50.506;30.832;2023-04-19T02:02:25;99626.64;;;7.63;69.95
42003;BME280;27693;50.506;30.832;2023-04-19T02:03:28;99621.45;;;7.63;70.01
42003;BME280;27693;50.506;30.832;2023-04-19T02:04:33;99624.97;;;7.62;69.77
42003;BME280;27693;50.506;30.832;2023-04-19T02:05:39;99630.03;;;7.65;70.38
42003;BME280;27693;50.506;30.832;2023-04-19T02:06:42;99623.16;;;7.64;69.79
42003;BME280;27693;50.506;30.832;2023-04-19T02:07:44;99626.64;;;7.63;70.16
42003;BME280;27693;50.506;30.832;2023-04-19T02:08:47;99622.26;;;7.65;69.95
42003;BME280;27693;50.506;30.832;2023-04-19T02:09:50;99623.09;;;7.65;69.59
42003;BME280;27693;50.506;30.832;2023-04-19T02:10:54;99616.19;;;7.66;69.87
42003;BME280;27693;50.506;30.832;2023-04-19T02:11:56;99624.97;;;7.62;69.56
42003;BME280;27693;50.506;30.832;2023-04-19T02:13:00;99612.06;;;7.60;69.57
42003;BME280;27693;50.506;30.832;2023-04-19T02:14:03;99611.54;;;7.50;69.71
42003;BME280;27693;50.506;30.832;2023-04-19T02:15:07;99611.54;;;7.50;69.71
42003;BME280;27693;50.506;30.832;2023-04-19T02:16:10;99616.84;;;7.47;69.86
42003;BME280;27693;50.506;30.832;2023-04-19T02:17:13;99609.32;;;7.40;70.06
42003;BME280;27693;50.506;30.832;2023-04-19T02:18:15;99616.99;;;7.43;71.16
42003;BME280;27693;50.506;30.832;2023-04-19T02:19:18;99616.34;;;7.36;70.43
42003;BME280;27693;50.506;30.832;2023-04-19T02:20:22;99612.59;;;7.45;72.66
42003;BME280;27693;50.506;30.832;2023-04-19T02:21:25;99612.59;;;7.45;72.66
42003;BME280;27693;50.506;30.832;2023-04-19T02:22:28;99614.98;;;7.51;73.49
42003;BME280;27693;50.506;30.832;2023-04-19T02:23:31;99611.45;;;7.54;72.33
42003;BME280;27693;50.506;30.832;2023-04-19T02:24:34;99612.92;;;7.61;72.87
42003;BME280;27693;50.506;30.832;2023-04-19T02:25:36;99616.28;;;7.63;72.17
42003;BME280;27693;50.506;30.832;2023-04-19T02:26:39;99609.22;;;7.68;72.34
42003;BME280;27693;50.506;30.832;2023-04-19T02:27:41;99612.58;;;7.70;72.29
42003;BME280;27693;50.506;30.832;2023-04-19T02:28:44;99609.73;;;7.78;72.25
42003;BME280;27693;50.506;30.832;2023-04-19T02:29:47;99616.61;;;7.79;71.31
42003;BME280;27693;50.506;30.832;2023-04-19T02:30:49;99608.77;;;7.80;71.44
42003;BME280;27693;50.506;30.832;2023-04-19T02:31:52;99615.42;;;7.88;71.42
42003;BME280;27693;50.506;30.832;2023-04-19T02:32:54;99610.02;;;7.94;71.37
42003;BME280;27693;50.506;30.832;2023-04-19T02:33:57;99611.80;;;7.92;70.45
42003;BME280;27693;50.506;30.832;2023-04-19T02:35:01;99614.78;;;7.81;69.71
42003;BME280;27693;50.506;30.832;2023-04-19T02:36:04;99606.84;;;7.86;70.33
42003;BME280;27693;50.506;30.832;2023-04-19T02:37:08;99615.19;;;7.94;69.79
42003;BME280;27693;50.506;30.832;2023-04-19T02:38:10;99611.70;;;7.95;71.25
42003;BME280;27693;50.506;30.832;2023-04-19T02:39:12;99613.41;;;7.96;71.59
42003;BME280;27693;50.506;30.832;2023-04-19T02:40:16;99613.27;;;7.99;71.32
42003;BME280;27693;50.506;30.832;2023-04-19T02:41:19;99614.30;;;7.95;70.64
42003;BME280;27693;50.506;30.832;2023-04-19T02:42:22;99614.30;;;7.95;70.64
42003;BME280;27693;50.506;30.832;2023-04-19T02:43:24;99611.70;;;7.95;70.65
42003;BME280;27693;50.506;30.832;2023-04-19T02:44:27;99614.23;;;7.96;70.89
42003;BME280;27693;50.506;30.832;2023-04-19T02:45:29;99612.44;;;7.98;70.81
42003;BME280;27693;50.506;30.832;2023-04-19T02:46:32;99617.63;;;7.98;70.75
42003;BME280;27693;50.506;30.832;2023-04-19T02:47:34;99619.25;;;8.01;71.08
42003;BME280;27693;50.506;30.832;2023-04-19T02:48:37;99618.45;;;7.99;70.38
42003;BME280;27693;50.506;30.832;2023-04-19T02:49:40;99616.76;;;7.98;70.68
42003;BME280;27693;50.506;30.832;2023-04-19T02:50:44;99614.83;;;8.03;69.93
42003;BME280;27693;50.506;30.832;2023-04-19T02:51:46;99619.12;;;8.04;70.07
42003;BME280;27693;50.506;30.832;2023-04-19T02:52:49;99613.05;;;7.81;69.10
42003;BME280;27693;50.506;30.832;2023-04-19T02:53:52;99618.17;;;7.83;69.74
42003;BME280;27693;50.506;30.832;2023-04-19T02:54:54;99615.42;;;7.88;69.83
42003;BME280;27693;50.506;30.832;2023-04-19T02:55:57;99624.82;;;7.90;70.30
42003;BME280;27693;50.506;30.832;2023-04-19T02:56:59;99623.28;;;7.84;69.80
42003;BME280;27693;50.506;30.832;2023-04-19T02:58:02;99622.52;;;7.82;70.79
42003;BME280;27693;50.506;30.832;2023-04-19T02:59:08;99627.70;;;7.82;71.35
42003;BME280;27693;50.506;30.832;2023-04-19T03:00:11;99624.62;;;7.71;70.73
42003;BME280;27693;50.506;30.832;2023-04-19T03:01:16;99624.91;;;7.63;69.68
42003;BME280;27693;50.506;30.832;2023-04-19T03:02:19;99616.72;;;7.50;69.57
42003;BME280;27693;50.506;30.832;2023-04-19T03:03:22;99621.80;;;7.54;70.69
42003;BME280;27693;50.506;30.832;2023-04-19T03:04:25;99624.33;;;7.55;70.77
42003;BME280;27693;50.506;30.832;2023-04-19T03:05:28;99621.67;;;7.57;71.05
42003;BME280;27693;50.506;30.832;2023-04-19T03:06:30;99626.77;;;7.60;71.16
42003;BME280;27693;50.506;30.832;2023-04-19T03:07:33;99614.77;;;7.57;71.14
42003;BME280;27693;50.506;30.832;2023-04-19T03:08:37;99615.67;;;7.56;71.21
42003;BME280;27693;50.506;30.832;2023-04-19T03:09:40;99618.10;;;7.61;72.09
42003;BME280;27693;50.506;30.832;2023-04-19T03:10:42;99621.23;;;7.69;71.55
42003;BME280;27693;50.506;30.832;2023-04-19T03:11:45;99622.84;;;7.73;71.79
42003;BME280;27693;50.506;30.832;2023-04-19T03:12:47;99617.75;;;7.70;71.49
42003;BME280;27693;50.506;30.832;2023-04-19T03:13:49;99621.36;;;7.66;71.58
42003;BME280;27693;50.506;30.832;2023-04-19T03:14:52;99614.93;;;7.53;70.34
42003;BME280;27693;50.506;30.832;2023-04-19T03:15:54;99618.25;;;7.56;70.33
42003;BME280;27693;50.506;30.832;2023-04-19T03:16:58;99620.50;;;7.65;70.34
42003;BME280;27693;50.506;30.832;2023-04-19T03:18:01;99625.42;;;7.73;70.21
42003;BME280;27693;50.506;30.832;2023-04-19T03:19:05;99622.71;;;7.76;70.56
42003;BME280;27693;50.506;30.832;2023-04-19T03:20:10;99624.41;;;7.77;70.62
42003;BME280;27693;50.506;30.832;2023-04-19T03:21:13;99621.50;;;7.87;70.16
42003;BME280;27693;50.506;30.832;2023-04-19T03:22:17;99618.17;;;7.83;69.84
42003;BME280;27693;50.506;30.832;2023-04-19T03:23:20;99613.50;;;7.93;69.53
42003;BME280;27693;50.506;30.832;2023-04-19T03:24:30;99618.28;;;8.04;69.47
42003;BME280;27693;50.506;30.832;2023-04-19T03:25:34;99615.86;;;7.99;70.19
42003;BME280;27693;50.506;30.832;2023-04-19T03:26:47;99619.34;;;7.98;71.16
42003;BME280;27693;50.506;30.832;2023-04-19T03:27:51;99615.30;;;7.91;71.07
42003;BME280;27693;50.506;30.832;2023-04-19T03:28:56;99612.67;;;7.92;71.14
42003;BME280;27693;50.506;30.832;2023-04-19T03:30:03;99612.60;;;7.94;71.02
42003;BME280;27693;50.506;30.832;2023-04-19T03:31:06;99608.98;;;7.98;70.80
42003;BME280;27693;50.506;30.832;2023-04-19T03:32:10;99610.68;;;7.99;71.10
42003;BME280;27693;50.506;30.832;2023-04-19T03:33:13;99612.24;;;8.03;70.96
42003;BME280;27693;50.506;30.832;2023-04-19T03:34:15;99608.95;;;7.99;70.22
42003;BME280;27693;50.506;30.832;2023-04-19T03:35:20;99607.36;;;7.95;69.78
42003;BME280;27693;50.506;30.832;2023-04-19T03:36:26;99616.66;;;8.01;70.17
42003;BME280;27693;50.506;30.832;2023-04-19T03:37:28;99608.72;;;8.06;70.13
42003;BME280;27693;50.506;30.832;2023-04-19T03:38:31;99612.67;;;7.92;69.47
42003;BME280;27693;50.506;30.832;2023-04-19T03:39:34;99607.48;;;7.92;69.97
42003;BME280;27693;50.506;30.832;2023-04-19T03:40:38;99603.97;;;7.93;69.95
42003;BME280;27693;50.506;30.832;2023-04-19T03:41:41;99602.34;;;7.91;70.04
42003;BME280;27693;50.506;30.832;2023-04-19T03:42:55;99599.75;;;7.91;70.51
42003;BME280;27693;50.506;30.832;2023-04-19T03:44:02;99603.14;;;7.93;70.90
42003;BME280;27693;50.506;30.832;2023-04-19T03:45:05;99602.50;;;7.86;70.19
42003;BME280;27693;50.506;30.832;2023-04-19T03:46:09;99601.89;;;7.79;70.17
42003;BME280;27693;50.506;30.832;2023-04-19T03:47:12;99600.20;;;7.78;70.29
42003;BME280;27693;50.506;30.832;2023-04-19T03:48:16;99600.88;;;7.83;70.54
42003;BME280;27693;50.506;30.832;2023-04-19T03:49:19;99602.13;;;7.73;68.97
42003;BME280;27693;50.506;30.832;2023-04-19T03:50:24;99601.99;;;7.76;69.55
42003;BME280;27693;50.506;30.832;2023-04-19T03:51:28;99610.47;;;7.81;69.17
42003;BME280;27693;50.506;30.832;2023-04-19T03:52:32;99603.59;;;7.80;68.85
42003;BME280;27693;50.506;30.832;2023-04-19T03:53:36;99604.55;;;7.78;68.66
42003;BME280;27693;50.506;30.832;2023-04-19T03:54:39;99605.70;;;7.69;68.71
42003;BME280;27693;50.506;30.832;2023-04-19T03:55:43;99601.61;;;7.63;68.35
42003;BME280;27693;50.506;30.832;2023-04-19T03:56:47;99607.62;;;7.64;68.71
42003;BME280;27693;50.506;30.832;2023-04-19T03:57:49;99604.13;;;7.65;68.90
42003;BME280;27693;50.506;30.832;2023-04-19T03:59:09;99608.58;;;7.61;68.99
42003;BME280;27693;50.506;30.832;2023-04-19T04:00:14;99606.36;;;7.50;68.97
42003;BME280;27693;50.506;30.832;2023-04-19T04:01:17;99609.10;;;7.46;69.11
42003;BME280;27693;50.506;30.832;2023-04-19T04:02:21;99603.19;;;7.42;69.03
42003;BME280;27693;50.506;30.832;2023-04-19T04:03:23;99605.01;;;7.40;69.51
42003;BME280;27693;50.506;30.832;2023-04-19T04:04:27;99603.16;;;7.44;69.39
42003;BME280;27693;50.506;30.832;2023-04-19T04:05:30;99598.72;;;7.47;69.96
42003;BME280;27693;50.506;30.832;2023-04-19T04:06:34;99607.31;;;7.48;69.29
42003;BME280;27693;50.506;30.832;2023-04-19T04:07:36;99605.01;;;7.40;69.00
42003;BME280;27693;50.506;30.832;2023-04-19T04:08:39;99605.96;;;7.38;68.90
42003;BME280;27693;50.506;30.832;2023-04-19T04:09:41;99602.57;;;7.35;69.20
42003;BME280;27693;50.506;30.832;2023-04-19T04:10:44;99595.64;;;7.36;69.19
42003;BME280;27693;50.506;30.832;2023-04-19T04:11:47;99603.25;;;7.41;70.42
42003;BME280;27693;50.506;30.832;2023-04-19T04:12:50;99610.86;;;7.45;70.08
42003;BME280;27693;50.506;30.832;2023-04-19T04:13:55;99607.22;;;7.51;70.01
42003;BME280;27693;50.506;30.832;2023-04-19T04:15:00;99607.84;;;7.58;70.33
42003;BME280;27693;50.506;30.832;2023-04-19T04:16:03;99607.52;;;7.67;71.41
42003;BME280;27693;50.506;30.832;2023-04-19T04:17:07;99608.87;;;7.77;70.76
42003;BME280;27693;50.506;30.832;2023-04-19T04:18:10;99613.79;;;7.85;70.69
42003;BME280;27693;50.506;30.832;2023-04-19T04:19:12;99604.89;;;7.92;69.38
42003;BME280;27693;50.506;30.832;2023-04-19T04:20:16;99607.13;;;8.02;69.23
42003;BME280;27693;50.506;30.832;2023-04-19T04:21:20;99602.44;;;8.11;70.03
42003;BME280;27693;50.506;30.832;2023-04-19T04:22:23;99605.93;;;8.10;67.15
42003;BME280;27693;50.506;30.832;2023-04-19T04:23:27;99594.67;;;8.11;67.16
42003;BME280;27693;50.506;30.832;2023-04-19T04:24:29;99605.59;;;8.20;68.30
42003;BME280;27693;50.506;30.832;2023-04-19T04:25:36;99610.44;;;8.29;67.49
42003;BME280;27693;50.506;30.832;2023-04-19T04:26:40;99602.36;;;8.37;67.32
42003;BME280;27693;50.506;30.832;2023-04-19T04:27:51;99607.48;;;8.38;66.25
42003;BME280;27693;50.506;30.832;2023-04-19T04:28:54;99597.91;;;8.40;65.74
42003;BME280;27693;50.506;30.832;2023-04-19T04:29:57;99599.46;;;8.44;65.87
42003;BME280;27693;50.506;30.832;2023-04-19T04:30:59;99599.46;;;8.44;65.66
42003;BME280;27693;50.506;30.832;2023-04-19T04:32:07;99597.59;;;8.50;66.05
42003;BME280;27693;50.506;30.832;2023-04-19T04:33:13;99589.05;;;8.46;64.79
42003;BME280;27693;50.506;30.832;2023-04-19T04:34:17;99590.57;;;8.52;65.06
42003;BME280;27693;50.506;30.832;2023-04-19T04:35:21;99599.28;;;8.51;64.50
42003;BME280;27693;50.506;30.832;2023-04-19T04:36:26;99598.24;;;8.55;64.85
42003;BME280;27693;50.506;30.832;2023-04-19T04:37:31;99599.08;;;8.55;64.03
42003;BME280;27693;50.506;30.832;2023-04-19T04:38:36;99597.20;;;8.59;63.97
42003;BME280;27693;50.506;30.832;2023-04-19T04:39:39;99606.27;;;8.49;63.93
42003;BME280;27693;50.506;30.832;2023-04-19T04:40:51;99597.34;;;8.56;64.90
42003;BME280;27693;50.506;30.832;2023-04-19T04:41:55;99599.69;;;8.62;64.27
42003;BME280;27693;50.506;30.832;2023-04-19T04:42:59;99600.48;;;8.64;64.07
42003;BME280;27693;50.506;30.832;2023-04-19T04:44:04;99590.94;;;8.65;63.93
42003;BME280;27693;50.506;30.832;2023-04-19T04:45:10;99595.16;;;8.67;64.88
42003;BME280;27693;50.506;30.832;2023-04-19T04:46:15;99600.34;;;8.67;64.39
42003;BME280;27693;50.506;30.832;2023-04-19T04:47:17;99598.54;;;8.69;64.47
42003;BME280;27693;50.506;30.832;2023-04-19T04:48:22;99600.09;;;8.73;64.74
42003;BME280;27693;50.506;30.832;2023-04-19T04:49:25;99596.60;;;8.74;64.39
42003;BME280;27693;50.506;30.832;2023-04-19T04:50:28;99600.78;;;8.78;64.17
42003;BME280;27693;50.506;30.832;2023-04-19T04:51:30;99605.75;;;8.83;64.40
42003;BME280;27693;50.506;30.832;2023-04-19T04:52:33;99597.79;;;8.88;64.71
42003;BME280;27693;50.506;30.832;2023-04-19T04:53:38;99604.56;;;8.92;64.29
42003;BME280;27693;50.506;30.832;2023-04-19T04:54:40;99604.42;;;8.95;64.27
42003;BME280;27693;50.506;30.832;2023-04-19T04:55:44;99604.30;;;8.98;64.24
42003;BME280;27693;50.506;30.832;2023-04-19T04:56:48;99609.61;;;8.95;63.88
42003;BME280;27693;50.506;30.832;2023-04-19T04:57:51;99609.50;;;8.98;63.91
42003;BME280;27693;50.506;30.832;2023-04-19T04:58:55;99610.94;;;9.05;64.08
42003;BME280;27693;50.506;30.832;2023-04-19T05:00:00;99605.86;;;9.02;63.43
42003;BME280;27693;50.506;30.832;2023-04-19T05:01:05;99608.38;;;9.04;63.42
42003;BME280;27693;50.506;30.832;2023-04-19T05:02:10;99607.41;;;9.06;63.28
42003;BME280;27693;50.506;30.832;2023-04-19T05:03:14;99602.93;;;9.10;63.21
42003;BME280;27693;50.506;30.832;2023-04-19T05:04:19;99609.89;;;9.09;62.94
42003;BME280;27693;50.506;30.832;2023-04-19T05:05:22;99602.75;;;9.15;63.08
42003;BME280;27693;50.506;30.832;2023-04-19T05:06:25;99606.70;;;9.23;63.11
42003;BME280;27693;50.506;30.832;2023-04-19T05:07:28;99610.02;;;9.27;62.99
42003;BME280;27693;50.506;30.832;2023-04-19T05:08:32;99610.08;;;9.25;62.30
42003;BME280;27693;50.506;30.832;2023-04-19T05:09:37;99613.40;;;9.29;62.50
42003;BME280;27693;50.506;30.832;2023-04-19T05:10:39;99614.19;;;9.31;62.16
42003;BME280;27693;50.506;30.832;2023-04-19T05:11:42;99605.88;;;9.23;61.94
42003;BME280;27693;50.506;30.832;2023-04-19T05:12:45;99613.92;;;9.17;61.79
42003;BME280;27693;50.506;30.832;2023-04-19T05:13:48;99603.53;;;9.17;61.78
42003;BME280;27693;50.506;30.832;2023-04-19T05:14:50;99594.95;;;9.15;61.67
42003;BME280;27693;50.506;30.832;2023-04-19T05:15:54;99594.95;;;9.15;61.67
42003;BME280;27693;50.506;30.832;2023-04-19T05:16:58;99601.47;;;9.25;62.18
42003;BME280;27693;50.506;30.832;2023-04-19T05:18:02;99611.84;;;9.25;62.09
42003;BME280;27693;50.506;30.832;2023-04-19T05:19:04;99608.20;;;9.29;61.88
42003;BME280;27693;50.506;30.832;2023-04-19T05:20:09;99605.68;;;9.27;61.61
42003;BME280;27693;50.506;30.832;2023-04-19T05:21:12;99607.41;;;9.27;61.60
42003;BME280;27693;50.506;30.832;2023-04-19T05:22:16;99605.68;;;9.27;61.46
42003;BME280;27693;50.506;30.832;2023-04-19T05:23:19;99612.56;;;9.29;61.53
42003;BME280;27693;50.506;30.832;2023-04-19T05:24:22;99608.80;;;9.36;61.74
42003;BME280;27693;50.506;30.832;2023-04-19T05:25:25;99602.48;;;9.41;61.72
42003;BME280;27693;50.506;30.832;2023-04-19T05:26:28;99602.17;;;9.49;61.84
42003;BME280;27693;50.506;30.832;2023-04-19T05:27:31;99605.33;;;9.56;61.53
42003;BME280;27693;50.506;30.832;2023-04-19T05:28:33;99618.95;;;9.61;61.71
42003;BME280;27693;50.506;30.832;2023-04-19T05:29:38;99612.53;;;9.70;61.86
42003;BME280;27693;50.506;30.832;2023-04-19T05:30:40;99611.55;;;9.72;61.01
42003;BME280;27693;50.506;30.832;2023-04-19T05:31:44;99613.09;;;9.77;60.97
42003;BME280;27693;50.506;30.832;2023-04-19T05:32:55;99619.86;;;9.81;60.89
42003;BME280;27693;50.506;30.832;2023-04-19T05:33:57;99616.20;;;9.85;60.66
42003;BME280;27693;50.506;30.832;2023-04-19T05:35:01;99618.17;;;9.80;60.13
42003;BME280;27693;50.506;30.832;2023-04-19T05:36:04;99616.16;;;9.66;60.35